
Distance (Route):
Temperature : -27.1°C
Humidity : 51.3%
Pressure : 0hPa| Receiver | Frames | First received | Last received |
|---|---|---|---|
| DJALKS | 36 | 2026-09-02 23:09:53 | 2026-09-02 23:32:04 |
| Receiver | Date | Latitude | Longitude | Direction | Speed | Altitude | Climb | Temperature | Humidity | Pressure | Voltage | Killtimer | Uptime | BKT | XDATA |
|---|---|---|---|---|---|---|---|---|---|---|---|---|---|---|---|
| DJALKS | 2026-09-02 23:32:04 | 42.66809 | -83.06637 | 92° | 73km/h | 8859m | 5.1m/s | -27.1°C | 51.3% | 0hPa | 0V | 00:00:00 | 00:00:00 | 00:00:00 | |
| DJALKS | 2026-09-02 23:31:31 | 42.66847 | -83.07418 | 94° | 68km/h | 8681m | 5.9m/s | -25.9°C | 58.1% | 0hPa | 0V | 00:00:00 | 00:00:00 | 00:00:00 | |
| DJALKS | 2026-09-02 23:31:07 | 42.66891 | -83.07999 | 89° | 62km/h | 8553m | 6.6m/s | -24.9°C | 57.4% | 0hPa | 0V | 00:00:00 | 00:00:00 | 00:00:00 | |
| DJALKS | 2026-09-02 23:30:12 | 42.66972 | -83.09243 | 98° | 58km/h | 8283m | 4.3m/s | -22.7°C | 56.8% | 0hPa | 0V | 00:00:00 | 00:00:00 | 00:00:00 | |
| DJALKS | 2026-09-02 23:26:10 | 42.67110 | -83.14677 | 99° | 73km/h | 6995m | 5.9m/s | -15.1°C | 56.8% | 0hPa | 0V | 00:00:00 | 00:00:00 | 00:00:00 | |
| DJALKS | 2026-09-02 23:25:20 | 42.67101 | -83.16099 | 95° | 91km/h | 6684m | 7.3m/s | -12.8°C | 39.1% | 0hPa | 0V | 00:00:00 | 00:00:00 | 00:00:00 | |
| DJALKS | 2026-09-02 23:25:00 | 42.67130 | -83.16682 | 96° | 80km/h | 6574m | 3.2m/s | -12.1°C | 39.8% | 0hPa | 0V | 00:00:00 | 00:00:00 | 00:00:00 | |
| DJALKS | 2026-09-02 23:24:40 | 42.67168 | -83.17282 | 94° | 80km/h | 6500m | 4.5m/s | -11.6°C | 47.7% | 0hPa | 0V | 00:00:00 | 00:00:00 | 00:00:00 | |
| DJALKS | 2026-09-02 23:24:18 | 42.67213 | -83.17901 | 100° | 89km/h | 6425m | 5.2m/s | -11.0°C | 44.4% | 0hPa | 0V | 00:00:00 | 00:00:00 | 00:00:00 | |
| DJALKS | 2026-09-02 23:23:50 | 42.67240 | -83.18778 | 91° | 86km/h | 6305m | 4.6m/s | -10.5°C | 59.2% | 0hPa | 0V | 00:00:00 | 00:00:00 | 00:00:00 | |
| DJALKS | 2026-09-02 23:23:28 | 42.67267 | -83.19430 | 102° | 82km/h | 6231m | 5.1m/s | -10.0°C | 54.8% | 0hPa | 0V | 00:00:00 | 00:00:00 | 00:00:00 | |
| DJALKS | 2026-09-02 23:23:01 | 42.67360 | -83.20251 | 98° | 73km/h | 6119m | 5.2m/s | -9.3°C | 46.8% | 0hPa | 0V | 00:00:00 | 00:00:00 | 00:00:00 | |
| DJALKS | 2026-09-02 23:22:15 | 42.67507 | -83.21685 | 101° | 89km/h | 5906m | 4.5m/s | -8.5°C | 24.8% | 0hPa | 0V | 00:00:00 | 00:00:00 | 00:00:00 | |
| DJALKS | 2026-09-02 23:21:54 | 42.67595 | -83.22359 | 99° | 91km/h | 5800m | 5.4m/s | -7.7°C | 25.2% | 0hPa | 0V | 00:00:00 | 00:00:00 | 00:00:00 | |
| DJALKS | 2026-09-02 23:21:13 | 42.67737 | -83.23613 | 96° | 95km/h | 5627m | 3.8m/s | -6.8°C | 46.4% | 0hPa | 0V | 00:00:00 | 00:00:00 | 00:00:00 | |
| DJALKS | 2026-09-02 23:20:53 | 42.67800 | -83.24182 | 101° | 84km/h | 5532m | 4.7m/s | -6.4°C | 71.5% | 0hPa | 0V | 00:00:00 | 00:00:00 | 00:00:00 | |
| DJALKS | 2026-09-02 23:20:33 | 42.67882 | -83.24762 | 90° | 75km/h | 5429m | 8.1m/s | -5.7°C | 63.0% | 0hPa | 0V | 00:00:00 | 00:00:00 | 00:00:00 | |
| DJALKS | 2026-09-02 23:19:33 | 42.68187 | -83.26230 | 111° | 80km/h | 5125m | 6.0m/s | -4.7°C | 73.8% | 0hPa | 0V | 00:00:00 | 00:00:00 | 00:00:00 | |
| DJALKS | 2026-09-02 23:18:29 | 42.68524 | -83.27850 | 103° | 71km/h | 4820m | 6.5m/s | -2.8°C | 94.1% | 0hPa | 0V | 00:00:00 | 00:00:00 | 00:00:00 | |
| DJALKS | 2026-09-02 23:18:04 | 42.68668 | -83.28525 | 118° | 84km/h | 4706m | 6.5m/s | -2.0°C | 93.3% | 0hPa | 0V | 00:00:00 | 00:00:00 | 00:00:00 | |
| DJALKS | 2026-09-02 23:17:43 | 42.68779 | -83.29136 | 109° | 91km/h | 4613m | 4.3m/s | -1.3°C | 89.5% | 0hPa | 0V | 00:00:00 | 00:00:00 | 00:00:00 | |
| DJALKS | 2026-09-02 23:17:23 | 42.68887 | -83.29677 | 94° | 88km/h | 4536m | 4.1m/s | -0.8°C | 88.8% | 0hPa | 0V | 00:00:00 | 00:00:00 | 00:00:00 | |
| DJALKS | 2026-09-02 23:17:02 | 42.69002 | -83.30262 | 113° | 86km/h | 4432m | 4.4m/s | -0.2°C | 88.0% | 0hPa | 0V | 00:00:00 | 00:00:00 | 00:00:00 | |
| DJALKS | 2026-09-02 23:16:30 | 42.69177 | -83.31164 | 100° | 80km/h | 4266m | 2.9m/s | 0.9°C | 97.2% | 0hPa | 0V | 00:00:00 | 00:00:00 | 00:00:00 | |
| DJALKS | 2026-09-02 23:16:05 | 42.69358 | -83.31805 | 99° | 77km/h | 4134m | 6.6m/s | 2.1°C | 99.2% | 0hPa | 0V | 00:00:00 | 00:00:00 | 00:00:00 | |
| DJALKS | 2026-09-02 23:15:35 | 42.69490 | -83.32581 | 104° | 69km/h | 3973m | 4.6m/s | 3.0°C | 99.3% | 0hPa | 0V | 00:00:00 | 00:00:00 | 00:00:00 | |
| DJALKS | 2026-09-02 23:15:16 | 42.69616 | -83.33115 | 108° | 86km/h | 3861m | 5.5m/s | 3.7°C | 98.3% | 0hPa | 0V | 00:00:00 | 00:00:00 | 00:00:00 | |
| DJALKS | 2026-09-02 23:14:53 | 42.69723 | -83.33632 | 114° | 62km/h | 3744m | 5.7m/s | 4.5°C | 94.6% | 0hPa | 0V | 00:00:00 | 00:00:00 | 00:00:00 | |
| DJALKS | 2026-09-02 23:14:24 | 42.69834 | -83.34273 | 103° | 64km/h | 3599m | 6.0m/s | 5.7°C | 88.6% | 0hPa | 0V | 00:00:00 | 00:00:00 | 00:00:00 | |
| DJALKS | 2026-09-02 23:14:04 | 42.69925 | -83.34712 | 102° | 75km/h | 3492m | 4.5m/s | 6.7°C | 84.6% | 0hPa | 0V | 00:00:00 | 00:00:00 | 00:00:00 | |
| DJALKS | 2026-09-02 23:13:44 | 42.70030 | -83.35148 | 98° | 57km/h | 3391m | 6.4m/s | 7.5°C | 82.8% | 0hPa | 0V | 00:00:00 | 00:00:00 | 00:00:00 | |
| DJALKS | 2026-09-02 23:13:22 | 42.70135 | -83.35611 | 117° | 69km/h | 3275m | 3.6m/s | 8.1°C | 0% | 0hPa | 0V | 00:00:00 | 00:00:00 | 00:00:00 | |
| DJALKS | 2026-09-02 23:13:01 | 42.70218 | -83.36086 | 100° | 64km/h | 3178m | 3.6m/s | 8.7°C | 0% | 0hPa | 0V | 00:00:00 | 00:00:00 | 00:00:00 | |
| DJALKS | 2026-09-02 23:12:40 | 42.70282 | -83.36526 | 97° | 68km/h | 3078m | 6.2m/s | 0°C | 0% | 0hPa | 0V | 00:00:00 | 00:00:00 | 00:00:00 | |
| DJALKS | 2026-09-02 23:12:19 | 42.70341 | -83.37006 | 93° | 73km/h | 2982m | 4.6m/s | 0°C | 0% | 0hPa | 0V | 00:00:00 | 00:00:00 | 00:00:00 | |
| DJALKS | 2026-09-02 23:09:53 | 42.70541 | -83.40213 | 102° | 64km/h | 2319m | 4.7m/s | 0°C | 0% | 0hPa | 0V | 00:00:00 | 00:00:00 | 00:00:00 |